sensor_id;sensor_type;location;lat;lon;timestamp;P1;durP1;ratioP1;P2;durP2;ratioP2
71236;SDS011;58984;51.960;5.582;2022-12-07T00:03:49;9.55;;;6.50;;
71236;SDS011;58984;51.960;5.582;2022-12-07T00:06:17;8.73;;;6.10;;
71236;SDS011;58984;51.960;5.582;2022-12-07T00:08:44;9.50;;;6.53;;
71236;SDS011;58984;51.960;5.582;2022-12-07T00:11:11;8.77;;;6.13;;
71236;SDS011;58984;51.960;5.582;2022-12-07T00:13:42;6.95;;;5.63;;
71236;SDS011;58984;51.960;5.582;2022-12-07T00:16:12;7.90;;;5.97;;
71236;SDS011;58984;51.960;5.582;2022-12-07T00:18:40;7.15;;;5.93;;
71236;SDS011;58984;51.960;5.582;2022-12-07T00:21:08;8.32;;;6.10;;
71236;SDS011;58984;51.960;5.582;2022-12-07T00:23:35;7.55;;;5.78;;
71236;SDS011;58984;51.960;5.582;2022-12-07T00:26:04;6.75;;;5.70;;
71236;SDS011;58984;51.960;5.582;2022-12-07T00:28:35;10.95;;;5.93;;
71236;SDS011;58984;51.960;5.582;2022-12-07T00:31:04;7.80;;;5.90;;
71236;SDS011;58984;51.960;5.582;2022-12-07T00:33:32;12.32;;;6.65;;
71236;SDS011;58984;51.960;5.582;2022-12-07T00:35:58;8.27;;;5.88;;
71236;SDS011;58984;51.960;5.582;2022-12-07T00:38:24;7.00;;;5.50;;
71236;SDS011;58984;51.960;5.582;2022-12-07T00:41:01;7.53;;;6.05;;
71236;SDS011;58984;51.960;5.582;2022-12-07T00:43:28;9.60;;;6.05;;
71236;SDS011;58984;51.960;5.582;2022-12-07T00:45:54;8.15;;;5.00;;
71236;SDS011;58984;51.960;5.582;2022-12-07T00:48:20;8.52;;;6.13;;
71236;SDS011;58984;51.960;5.582;2022-12-07T00:50:49;7.60;;;5.80;;
71236;SDS011;58984;51.960;5.582;2022-12-07T00:53:15;8.10;;;5.85;;
71236;SDS011;58984;51.960;5.582;2022-12-07T00:55:42;11.75;;;6.15;;
71236;SDS011;58984;51.960;5.582;2022-12-07T00:58:08;7.18;;;5.60;;
71236;SDS011;58984;51.960;5.582;2022-12-07T01:00:38;9.07;;;5.82;;
71236;SDS011;58984;51.960;5.582;2022-12-07T01:03:05;7.45;;;5.82;;
71236;SDS011;58984;51.960;5.582;2022-12-07T01:05:31;7.75;;;6.07;;
71236;SDS011;58984;51.960;5.582;2022-12-07T01:08:00;8.85;;;5.88;;
71236;SDS011;58984;51.960;5.582;2022-12-07T01:10:26;8.32;;;5.65;;
71236;SDS011;58984;51.960;5.582;2022-12-07T01:12:51;7.57;;;5.65;;
71236;SDS011;58984;51.960;5.582;2022-12-07T01:15:17;9.27;;;6.00;;
71236;SDS011;58984;51.960;5.582;2022-12-07T01:17:43;6.35;;;5.18;;
71236;SDS011;58984;51.960;5.582;2022-12-07T01:20:08;6.65;;;5.60;;
71236;SDS011;58984;51.960;5.582;2022-12-07T01:22:38;9.10;;;5.88;;
71236;SDS011;58984;51.960;5.582;2022-12-07T01:25:06;8.30;;;6.22;;
71236;SDS011;58984;51.960;5.582;2022-12-07T01:27:33;6.68;;;5.40;;
71236;SDS011;58984;51.960;5.582;2022-12-07T01:30:00;8.02;;;5.60;;
71236;SDS011;58984;51.960;5.582;2022-12-07T01:32:26;8.32;;;5.75;;
71236;SDS011;58984;51.960;5.582;2022-12-07T01:34:52;6.78;;;5.50;;
71236;SDS011;58984;51.960;5.582;2022-12-07T01:37:17;8.40;;;5.88;;
71236;SDS011;58984;51.960;5.582;2022-12-07T01:39:43;5.82;;;5.15;;
71236;SDS011;58984;51.960;5.582;2022-12-07T01:42:11;7.72;;;5.78;;
71236;SDS011;58984;51.960;5.582;2022-12-07T01:47:41;9.45;;;5.80;;
71236;SDS011;58984;51.960;5.582;2022-12-07T01:50:08;6.22;;;5.20;;
71236;SDS011;58984;51.960;5.582;2022-12-07T01:52:34;8.80;;;5.88;;
71236;SDS011;58984;51.960;5.582;2022-12-07T01:55:03;8.43;;;5.45;;
71236;SDS011;58984;51.960;5.582;2022-12-07T01:57:32;9.90;;;5.65;;
71236;SDS011;58984;51.960;5.582;2022-12-07T02:00:02;8.68;;;5.13;;
71236;SDS011;58984;51.960;5.582;2022-12-07T02:02:30;7.25;;;4.82;;
71236;SDS011;58984;51.960;5.582;2022-12-07T02:05:00;9.57;;;5.55;;
71236;SDS011;58984;51.960;5.582;2022-12-07T02:07:28;8.88;;;5.68;;
71236;SDS011;58984;51.960;5.582;2022-12-07T02:09:56;6.90;;;4.90;;
71236;SDS011;58984;51.960;5.582;2022-12-07T02:12:21;7.18;;;5.40;;
71236;SDS011;58984;51.960;5.582;2022-12-07T02:14:48;9.35;;;5.65;;
71236;SDS011;58984;51.960;5.582;2022-12-07T02:27:49;7.33;;;5.20;;
71236;SDS011;58984;51.960;5.582;2022-12-07T02:30:39;5.82;;;4.70;;
71236;SDS011;58984;51.960;5.582;2022-12-07T02:33:23;7.63;;;5.10;;
71236;SDS011;58984;51.960;5.582;2022-12-07T02:39:02;5.22;;;4.40;;
71236;SDS011;58984;51.960;5.582;2022-12-07T02:41:38;5.43;;;4.47;;
71236;SDS011;58984;51.960;5.582;2022-12-07T02:44:09;8.05;;;4.97;;
71236;SDS011;58984;51.960;5.582;2022-12-07T02:46:57;6.15;;;4.43;;
71236;SDS011;58984;51.960;5.582;2022-12-07T02:49:27;6.07;;;4.25;;
71236;SDS011;58984;51.960;5.582;2022-12-07T02:51:54;6.30;;;4.60;;
71236;SDS011;58984;51.960;5.582;2022-12-07T02:54:20;9.07;;;4.55;;
71236;SDS011;58984;51.960;5.582;2022-12-07T02:56:48;7.72;;;4.28;;
71236;SDS011;58984;51.960;5.582;2022-12-07T03:07:54;4.87;;;4.20;;
71236;SDS011;58984;51.960;5.582;2022-12-07T03:16:09;8.25;;;4.70;;
71236;SDS011;58984;51.960;5.582;2022-12-07T03:18:51;4.85;;;4.05;;
71236;SDS011;58984;51.960;5.582;2022-12-07T03:21:36;6.03;;;4.22;;
71236;SDS011;58984;51.960;5.582;2022-12-07T03:24:06;6.40;;;4.47;;
71236;SDS011;58984;51.960;5.582;2022-12-07T03:26:36;7.53;;;4.57;;
71236;SDS011;58984;51.960;5.582;2022-12-07T03:29:08;5.43;;;4.50;;
71236;SDS011;58984;51.960;5.582;2022-12-07T03:31:42;5.97;;;4.93;;
71236;SDS011;58984;51.960;5.582;2022-12-07T03:37:03;7.18;;;4.35;;
71236;SDS011;58984;51.960;5.582;2022-12-07T03:39:38;8.43;;;5.22;;
71236;SDS011;58984;51.960;5.582;2022-12-07T03:42:11;8.20;;;4.68;;
71236;SDS011;58984;51.960;5.582;2022-12-07T03:44:38;9.65;;;4.50;;
71236;SDS011;58984;51.960;5.582;2022-12-07T03:47:08;5.22;;;3.85;;
71236;SDS011;58984;51.960;5.582;2022-12-07T03:49:48;7.47;;;4.60;;
71236;SDS011;58984;51.960;5.582;2022-12-07T03:52:42;6.88;;;4.65;;
71236;SDS011;58984;51.960;5.582;2022-12-07T03:55:21;7.53;;;4.28;;
71236;SDS011;58984;51.960;5.582;2022-12-07T03:58:03;6.88;;;4.47;;
71236;SDS011;58984;51.960;5.582;2022-12-07T04:00:32;4.85;;;3.97;;
71236;SDS011;58984;51.960;5.582;2022-12-07T04:02:58;8.50;;;4.97;;
71236;SDS011;58984;51.960;5.582;2022-12-07T04:05:24;6.93;;;4.18;;
71236;SDS011;58984;51.960;5.582;2022-12-07T04:07:50;6.75;;;4.20;;
71236;SDS011;58984;51.960;5.582;2022-12-07T04:10:16;8.55;;;4.45;;
71236;SDS011;58984;51.960;5.582;2022-12-07T04:12:41;5.63;;;4.07;;
71236;SDS011;58984;51.960;5.582;2022-12-07T04:15:07;5.07;;;3.97;;
71236;SDS011;58984;51.960;5.582;2022-12-07T04:17:33;9.23;;;4.30;;
71236;SDS011;58984;51.960;5.582;2022-12-07T04:19:59;5.82;;;4.32;;
71236;SDS011;58984;51.960;5.582;2022-12-07T04:22:24;6.45;;;4.53;;
71236;SDS011;58984;51.960;5.582;2022-12-07T04:24:50;4.95;;;3.95;;
71236;SDS011;58984;51.960;5.582;2022-12-07T04:27:15;7.03;;;4.28;;
71236;SDS011;58984;51.960;5.582;2022-12-07T04:29:41;10.25;;;4.68;;
71236;SDS011;58984;51.960;5.582;2022-12-07T04:32:06;5.93;;;3.95;;
71236;SDS011;58984;51.960;5.582;2022-12-07T04:34:32;10.85;;;4.88;;
71236;SDS011;58984;51.960;5.582;2022-12-07T04:36:58;6.35;;;3.75;;
71236;SDS011;58984;51.960;5.582;2022-12-07T04:39:27;5.68;;;3.95;;
71236;SDS011;58984;51.960;5.582;2022-12-07T04:41:55;8.27;;;4.28;;
71236;SDS011;58984;51.960;5.582;2022-12-07T04:44:23;4.93;;;3.20;;
71236;SDS011;58984;51.960;5.582;2022-12-07T04:46:50;6.18;;;3.45;;
71236;SDS011;58984;51.960;5.582;2022-12-07T04:49:16;6.90;;;3.45;;
71236;SDS011;58984;51.960;5.582;2022-12-07T04:51:43;8.02;;;3.65;;
71236;SDS011;58984;51.960;5.582;2022-12-07T04:54:09;8.77;;;4.10;;
71236;SDS011;58984;51.960;5.582;2022-12-07T04:56:35;4.60;;;3.50;;
71236;SDS011;58984;51.960;5.582;2022-12-07T04:59:01;7.13;;;3.40;;
71236;SDS011;58984;51.960;5.582;2022-12-07T05:01:27;5.47;;;3.75;;
71236;SDS011;58984;51.960;5.582;2022-12-07T05:03:53;8.27;;;3.63;;
71236;SDS011;58984;51.960;5.582;2022-12-07T05:06:19;5.30;;;3.20;;
71236;SDS011;58984;51.960;5.582;2022-12-07T05:08:44;5.10;;;3.38;;
71236;SDS011;58984;51.960;5.582;2022-12-07T05:11:10;6.30;;;4.05;;
71236;SDS011;58984;51.960;5.582;2022-12-07T05:13:55;8.35;;;3.88;;
71236;SDS011;58984;51.960;5.582;2022-12-07T05:16:21;6.15;;;3.30;;
71236;SDS011;58984;51.960;5.582;2022-12-07T05:18:46;5.68;;;3.65;;
71236;SDS011;58984;51.960;5.582;2022-12-07T05:21:12;9.73;;;3.50;;
71236;SDS011;58984;51.960;5.582;2022-12-07T05:23:37;6.10;;;3.25;;
71236;SDS011;58984;51.960;5.582;2022-12-07T05:26:03;4.18;;;3.20;;
71236;SDS011;58984;51.960;5.582;2022-12-07T05:28:29;10.10;;;3.28;;
71236;SDS011;58984;51.960;5.582;2022-12-07T05:30:54;5.35;;;3.38;;
71236;SDS011;58984;51.960;5.582;2022-12-07T05:33:20;4.45;;;3.05;;
71236;SDS011;58984;51.960;5.582;2022-12-07T05:35:45;4.32;;;3.35;;
71236;SDS011;58984;51.960;5.582;2022-12-07T05:38:11;6.78;;;3.05;;
71236;SDS011;58984;51.960;5.582;2022-12-07T05:40:36;3.63;;;2.75;;
71236;SDS011;58984;51.960;5.582;2022-12-07T05:43:02;4.38;;;2.80;;
71236;SDS011;58984;51.960;5.582;2022-12-07T05:45:28;6.38;;;2.92;;
71236;SDS011;58984;51.960;5.582;2022-12-07T05:47:53;4.65;;;3.30;;
71236;SDS011;58984;51.960;5.582;2022-12-07T05:50:19;4.07;;;3.30;;
71236;SDS011;58984;51.960;5.582;2022-12-07T05:52:44;4.13;;;3.22;;
71236;SDS011;58984;51.960;5.582;2022-12-07T05:55:10;3.88;;;2.67;;
71236;SDS011;58984;51.960;5.582;2022-12-07T05:57:35;6.07;;;2.83;;
71236;SDS011;58984;51.960;5.582;2022-12-07T06:00:02;4.65;;;2.38;;
71236;SDS011;58984;51.960;5.582;2022-12-07T06:02:30;4.13;;;2.67;;
71236;SDS011;58984;51.960;5.582;2022-12-07T06:04:55;4.82;;;2.83;;
71236;SDS011;58984;51.960;5.582;2022-12-07T06:07:21;5.35;;;2.78;;
71236;SDS011;58984;51.960;5.582;2022-12-07T06:09:46;3.53;;;2.10;;
71236;SDS011;58984;51.960;5.582;2022-12-07T06:12:12;8.32;;;2.80;;
71236;SDS011;58984;51.960;5.582;2022-12-07T06:14:57;3.60;;;2.17;;
71236;SDS011;58984;51.960;5.582;2022-12-07T06:17:22;7.13;;;2.70;;
71236;SDS011;58984;51.960;5.582;2022-12-07T06:19:48;4.55;;;2.40;;
71236;SDS011;58984;51.960;5.582;2022-12-07T06:22:13;4.93;;;2.60;;
71236;SDS011;58984;51.960;5.582;2022-12-07T06:24:41;7.00;;;2.83;;
71236;SDS011;58984;51.960;5.582;2022-12-07T06:27:07;6.38;;;3.08;;
71236;SDS011;58984;51.960;5.582;2022-12-07T06:29:33;4.28;;;2.53;;
71236;SDS011;58984;51.960;5.582;2022-12-07T06:31:59;6.50;;;2.80;;
71236;SDS011;58984;51.960;5.582;2022-12-07T06:34:25;6.00;;;2.60;;
71236;SDS011;58984;51.960;5.582;2022-12-07T06:36:51;7.25;;;2.88;;
71236;SDS011;58984;51.960;5.582;2022-12-07T06:39:19;6.63;;;3.15;;
71236;SDS011;58984;51.960;5.582;2022-12-07T06:41:46;8.40;;;2.63;;
71236;SDS011;58984;51.960;5.582;2022-12-07T06:44:12;4.53;;;2.58;;
71236;SDS011;58984;51.960;5.582;2022-12-07T06:46:37;4.18;;;2.72;;
71236;SDS011;58984;51.960;5.582;2022-12-07T06:49:03;4.45;;;3.75;;
71236;SDS011;58984;51.960;5.582;2022-12-07T06:51:30;4.50;;;2.95;;
71236;SDS011;58984;51.960;5.582;2022-12-07T06:53:56;5.85;;;3.28;;
71236;SDS011;58984;51.960;5.582;2022-12-07T06:56:22;5.15;;;3.05;;
71236;SDS011;58984;51.960;5.582;2022-12-07T06:58:47;5.57;;;3.22;;
71236;SDS011;58984;51.960;5.582;2022-12-07T07:01:14;4.68;;;2.90;;
71236;SDS011;58984;51.960;5.582;2022-12-07T07:03:41;5.35;;;3.38;;
71236;SDS011;58984;51.960;5.582;2022-12-07T07:06:07;4.60;;;2.97;;
71236;SDS011;58984;51.960;5.582;2022-12-07T07:08:33;6.32;;;3.42;;
71236;SDS011;58984;51.960;5.582;2022-12-07T07:11:03;5.20;;;2.75;;
71236;SDS011;58984;51.960;5.582;2022-12-07T07:13:29;4.20;;;2.95;;
71236;SDS011;58984;51.960;5.582;2022-12-07T07:15:55;4.78;;;2.63;;
71236;SDS011;58984;51.960;5.582;2022-12-07T07:18:20;5.05;;;3.45;;
71236;SDS011;58984;51.960;5.582;2022-12-07T07:20:46;5.22;;;3.10;;
71236;SDS011;58984;51.960;5.582;2022-12-07T07:23:12;7.22;;;3.33;;
71236;SDS011;58984;51.960;5.582;2022-12-07T07:25:38;5.30;;;3.38;;
71236;SDS011;58984;51.960;5.582;2022-12-07T07:28:03;3.15;;;2.58;;
71236;SDS011;58984;51.960;5.582;2022-12-07T07:30:29;6.40;;;3.20;;
71236;SDS011;58984;51.960;5.582;2022-12-07T07:32:58;5.78;;;2.78;;
71236;SDS011;58984;51.960;5.582;2022-12-07T07:35:25;4.70;;;2.92;;
71236;SDS011;58984;51.960;5.582;2022-12-07T07:37:51;6.70;;;3.13;;
71236;SDS011;58984;51.960;5.582;2022-12-07T07:40:17;5.60;;;2.90;;
71236;SDS011;58984;51.960;5.582;2022-12-07T07:42:43;10.07;;;2.65;;
71236;SDS011;58984;51.960;5.582;2022-12-07T07:45:08;4.68;;;2.80;;
71236;SDS011;58984;51.960;5.582;2022-12-07T07:47:34;7.53;;;3.00;;
71236;SDS011;58984;51.960;5.582;2022-12-07T07:50:00;6.32;;;3.05;;
71236;SDS011;58984;51.960;5.582;2022-12-07T07:52:26;4.75;;;2.90;;
71236;SDS011;58984;51.960;5.582;2022-12-07T07:54:52;5.53;;;2.58;;
71236;SDS011;58984;51.960;5.582;2022-12-07T07:57:17;6.00;;;2.78;;
71236;SDS011;58984;51.960;5.582;2022-12-07T07:59:43;5.75;;;3.28;;
71236;SDS011;58984;51.960;5.582;2022-12-07T08:02:12;3.78;;;3.30;;
71236;SDS011;58984;51.960;5.582;2022-12-07T08:04:40;7.72;;;3.22;;
71236;SDS011;58984;51.960;5.582;2022-12-07T08:07:05;5.28;;;3.13;;
71236;SDS011;58984;51.960;5.582;2022-12-07T08:09:31;7.70;;;3.67;;
71236;SDS011;58984;51.960;5.582;2022-12-07T08:11:57;6.55;;;3.28;;
71236;SDS011;58984;51.960;5.582;2022-12-07T08:14:23;9.52;;;3.80;;
71236;SDS011;58984;51.960;5.582;2022-12-07T08:16:49;7.90;;;3.47;;
71236;SDS011;58984;51.960;5.582;2022-12-07T08:19:15;11.20;;;3.97;;
71236;SDS011;58984;51.960;5.582;2022-12-07T08:21:40;14.70;;;5.47;;
71236;SDS011;58984;51.960;5.582;2022-12-07T08:24:06;9.27;;;5.07;;
71236;SDS011;58984;51.960;5.582;2022-12-07T08:26:32;9.15;;;4.30;;
71236;SDS011;58984;51.960;5.582;2022-12-07T08:28:57;9.20;;;5.00;;
71236;SDS011;58984;51.960;5.582;2022-12-07T08:31:23;10.60;;;4.63;;
71236;SDS011;58984;51.960;5.582;2022-12-07T08:33:48;6.43;;;4.28;;
71236;SDS011;58984;51.960;5.582;2022-12-07T08:36:14;12.02;;;4.60;;
71236;SDS011;58984;51.960;5.582;2022-12-07T08:38:40;10.52;;;5.40;;
71236;SDS011;58984;51.960;5.582;2022-12-07T08:41:07;7.47;;;5.10;;
71236;SDS011;58984;51.960;5.582;2022-12-07T08:43:33;5.60;;;4.15;;
71236;SDS011;58984;51.960;5.582;2022-12-07T08:48:50;10.65;;;4.75;;
71236;SDS011;58984;51.960;5.582;2022-12-07T08:51:19;10.50;;;4.63;;
71236;SDS011;58984;51.960;5.582;2022-12-07T08:53:47;7.07;;;4.75;;
71236;SDS011;58984;51.960;5.582;2022-12-07T08:56:14;6.97;;;4.10;;
71236;SDS011;58984;51.960;5.582;2022-12-07T08:58:40;8.98;;;4.50;;
71236;SDS011;58984;51.960;5.582;2022-12-07T09:01:06;7.63;;;4.05;;
71236;SDS011;58984;51.960;5.582;2022-12-07T09:03:31;4.70;;;4.30;;
71236;SDS011;58984;51.960;5.582;2022-12-07T09:05:57;6.68;;;3.95;;
71236;SDS011;58984;51.960;5.582;2022-12-07T09:08:26;7.03;;;4.20;;
71236;SDS011;58984;51.960;5.582;2022-12-07T09:11:04;7.15;;;4.20;;
71236;SDS011;58984;51.960;5.582;2022-12-07T09:13:30;6.25;;;3.88;;
71236;SDS011;58984;51.960;5.582;2022-12-07T09:15:56;11.65;;;3.90;;
71236;SDS011;58984;51.960;5.582;2022-12-07T09:18:22;6.88;;;4.00;;
71236;SDS011;58984;51.960;5.582;2022-12-07T09:20:49;9.10;;;4.05;;
71236;SDS011;58984;51.960;5.582;2022-12-07T09:23:14;11.88;;;3.85;;
71236;SDS011;58984;51.960;5.582;2022-12-07T09:25:40;4.90;;;3.67;;
71236;SDS011;58984;51.960;5.582;2022-12-07T09:28:05;5.10;;;3.60;;
71236;SDS011;58984;51.960;5.582;2022-12-07T09:30:31;8.10;;;4.03;;
71236;SDS011;58984;51.960;5.582;2022-12-07T09:32:57;6.72;;;3.88;;
71236;SDS011;58984;51.960;5.582;2022-12-07T09:35:25;8.40;;;4.40;;
71236;SDS011;58984;51.960;5.582;2022-12-07T09:37:51;7.22;;;3.85;;
71236;SDS011;58984;51.960;5.582;2022-12-07T09:40:17;7.88;;;4.00;;
71236;SDS011;58984;51.960;5.582;2022-12-07T09:42:47;6.82;;;4.03;;
71236;SDS011;58984;51.960;5.582;2022-12-07T09:45:19;13.55;;;4.50;;
71236;SDS011;58984;51.960;5.582;2022-12-07T09:47:52;6.70;;;4.40;;
71236;SDS011;58984;51.960;5.582;2022-12-07T09:50:21;7.70;;;4.10;;
71236;SDS011;58984;51.960;5.582;2022-12-07T09:52:49;7.75;;;4.28;;
71236;SDS011;58984;51.960;5.582;2022-12-07T09:55:22;6.78;;;3.85;;
71236;SDS011;58984;51.960;5.582;2022-12-07T09:57:53;5.80;;;3.80;;
71236;SDS011;58984;51.960;5.582;2022-12-07T10:00:20;8.13;;;3.72;;
71236;SDS011;58984;51.960;5.582;2022-12-07T10:05:35;5.78;;;3.22;;
71236;SDS011;58984;51.960;5.582;2022-12-07T10:08:13;6.72;;;2.92;;
71236;SDS011;58984;51.960;5.582;2022-12-07T10:10:40;7.80;;;3.40;;
71236;SDS011;58984;51.960;5.582;2022-12-07T10:13:13;9.20;;;3.78;;
71236;SDS011;58984;51.960;5.582;2022-12-07T10:15:41;4.40;;;2.70;;
71236;SDS011;58984;51.960;5.582;2022-12-07T10:18:17;6.13;;;3.00;;
71236;SDS011;58984;51.960;5.582;2022-12-07T10:21:13;6.43;;;3.22;;
71236;SDS011;58984;51.960;5.582;2022-12-07T10:24:27;6.07;;;2.78;;
71236;SDS011;58984;51.960;5.582;2022-12-07T10:29:24;7.10;;;3.08;;
71236;SDS011;58984;51.960;5.582;2022-12-07T10:39:46;6.85;;;2.53;;
71236;SDS011;58984;51.960;5.582;2022-12-07T10:47:44;3.85;;;2.60;;
71236;SDS011;58984;51.960;5.582;2022-12-07T10:56:01;3.63;;;2.05;;
71236;SDS011;58984;51.960;5.582;2022-12-07T11:01:26;4.57;;;2.45;;
71236;SDS011;58984;51.960;5.582;2022-12-07T11:25:53;8.40;;;3.50;;
71236;SDS011;58984;51.960;5.582;2022-12-07T11:36:55;5.25;;;2.55;;
71236;SDS011;58984;51.960;5.582;2022-12-07T11:41:47;3.03;;;2.40;;
71236;SDS011;58984;51.960;5.582;2022-12-07T11:47:07;3.13;;;2.25;;
71236;SDS011;58984;51.960;5.582;2022-12-07T11:49:41;4.18;;;2.67;;
71236;SDS011;58984;51.960;5.582;2022-12-07T11:52:20;6.10;;;2.80;;
71236;SDS011;58984;51.960;5.582;2022-12-07T11:54:52;4.80;;;3.05;;
71236;SDS011;58984;51.960;5.582;2022-12-07T11:57:30;10.07;;;3.10;;
71236;SDS011;58984;51.960;5.582;2022-12-07T12:00:11;6.25;;;3.03;;
71236;SDS011;58984;51.960;5.582;2022-12-07T12:02:53;9.50;;;3.85;;
71236;SDS011;58984;51.960;5.582;2022-12-07T12:05:22;8.05;;;2.80;;
71236;SDS011;58984;51.960;5.582;2022-12-07T12:07:53;18.48;;;4.32;;
71236;SDS011;58984;51.960;5.582;2022-12-07T12:10:42;17.20;;;6.15;;
71236;SDS011;58984;51.960;5.582;2022-12-07T12:22:02;16.20;;;6.45;;
71236;SDS011;58984;51.960;5.582;2022-12-07T12:24:47;8.65;;;5.03;;
71236;SDS011;58984;51.960;5.582;2022-12-07T12:29:51;15.27;;;5.10;;
71236;SDS011;58984;51.960;5.582;2022-12-07T12:32:20;9.57;;;4.57;;
71236;SDS011;58984;51.960;5.582;2022-12-07T12:34:58;10.15;;;3.70;;
71236;SDS011;58984;51.960;5.582;2022-12-07T12:42:43;6.10;;;2.85;;
71236;SDS011;58984;51.960;5.582;2022-12-07T12:50:20;10.80;;;3.10;;
71236;SDS011;58984;51.960;5.582;2022-12-07T13:00:45;12.70;;;2.92;;
71236;SDS011;58984;51.960;5.582;2022-12-07T13:03:22;6.00;;;2.60;;
71236;SDS011;58984;51.960;5.582;2022-12-07T13:08:49;2.72;;;2.50;;
71236;SDS011;58984;51.960;5.582;2022-12-07T13:11:17;6.28;;;2.45;;
71236;SDS011;58984;51.960;5.582;2022-12-07T13:13:45;4.65;;;2.30;;
71236;SDS011;58984;51.960;5.582;2022-12-07T13:18:36;8.52;;;2.85;;
71236;SDS011;58984;51.960;5.582;2022-12-07T13:29:13;7.20;;;4.13;;
71236;SDS011;58984;51.960;5.582;2022-12-07T13:31:46;10.80;;;6.00;;
71236;SDS011;58984;51.960;5.582;2022-12-07T13:36:52;12.07;;;5.53;;
71236;SDS011;58984;51.960;5.582;2022-12-07T13:39:19;8.82;;;4.82;;
71236;SDS011;58984;51.960;5.582;2022-12-07T13:41:57;7.05;;;4.05;;
71236;SDS011;58984;51.960;5.582;2022-12-07T13:44:25;7.28;;;4.50;;
71236;SDS011;58984;51.960;5.582;2022-12-07T13:49:22;7.25;;;4.00;;
71236;SDS011;58984;51.960;5.582;2022-12-07T13:54:45;6.93;;;3.20;;
71236;SDS011;58984;51.960;5.582;2022-12-07T13:57:19;5.80;;;3.42;;
71236;SDS011;58984;51.960;5.582;2022-12-07T13:59:46;7.97;;;3.20;;
71236;SDS011;58984;51.960;5.582;2022-12-07T14:02:19;5.60;;;3.10;;
71236;SDS011;58984;51.960;5.582;2022-12-07T14:04:48;4.38;;;3.20;;
71236;SDS011;58984;51.960;5.582;2022-12-07T14:07:23;7.35;;;3.42;;
71236;SDS011;58984;51.960;5.582;2022-12-07T14:09:58;6.07;;;3.00;;
71236;SDS011;58984;51.960;5.582;2022-12-07T14:12:26;5.70;;;3.00;;
71236;SDS011;58984;51.960;5.582;2022-12-07T14:15:02;4.43;;;3.20;;
71236;SDS011;58984;51.960;5.582;2022-12-07T14:17:28;3.92;;;2.90;;
71236;SDS011;58984;51.960;5.582;2022-12-07T14:22:33;5.90;;;3.03;;
71236;SDS011;58984;51.960;5.582;2022-12-07T14:27:56;8.23;;;3.97;;
71236;SDS011;58984;51.960;5.582;2022-12-07T14:30:27;7.72;;;3.50;;
71236;SDS011;58984;51.960;5.582;2022-12-07T14:32:56;6.75;;;4.57;;
71236;SDS011;58984;51.960;5.582;2022-12-07T14:35:33;8.13;;;4.20;;
71236;SDS011;58984;51.960;5.582;2022-12-07T14:37:58;5.95;;;4.45;;
71236;SDS011;58984;51.960;5.582;2022-12-07T14:40:26;11.07;;;4.80;;
71236;SDS011;58984;51.960;5.582;2022-12-07T14:42:55;10.10;;;5.40;;
71236;SDS011;58984;51.960;5.582;2022-12-07T14:45:25;9.30;;;4.85;;
71236;SDS011;58984;51.960;5.582;2022-12-07T14:47:51;10.32;;;6.15;;
71236;SDS011;58984;51.960;5.582;2022-12-07T14:50:17;11.52;;;6.10;;
71236;SDS011;58984;51.960;5.582;2022-12-07T14:52:46;12.02;;;5.90;;
71236;SDS011;58984;51.960;5.582;2022-12-07T14:57:50;11.82;;;5.50;;
71236;SDS011;58984;51.960;5.582;2022-12-07T15:00:16;8.95;;;4.47;;
71236;SDS011;58984;51.960;5.582;2022-12-07T15:02:44;10.70;;;4.80;;
71236;SDS011;58984;51.960;5.582;2022-12-07T15:05:10;6.55;;;3.95;;
71236;SDS011;58984;51.960;5.582;2022-12-07T15:07:36;6.40;;;3.78;;
71236;SDS011;58984;51.960;5.582;2022-12-07T15:10:02;5.97;;;3.85;;
71236;SDS011;58984;51.960;5.582;2022-12-07T15:12:28;10.05;;;4.10;;
71236;SDS011;58984;51.960;5.582;2022-12-07T15:14:53;6.70;;;3.78;;
71236;SDS011;58984;51.960;5.582;2022-12-07T15:17:19;9.63;;;4.50;;
71236;SDS011;58984;51.960;5.582;2022-12-07T15:19:45;6.32;;;4.07;;
71236;SDS011;58984;51.960;5.582;2022-12-07T15:22:10;6.97;;;3.20;;
71236;SDS011;58984;51.960;5.582;2022-12-07T15:24:36;7.30;;;3.28;;
71236;SDS011;58984;51.960;5.582;2022-12-07T15:27:02;8.45;;;3.85;;
71236;SDS011;58984;51.960;5.582;2022-12-07T15:29:28;3.28;;;2.63;;
71236;SDS011;58984;51.960;5.582;2022-12-07T15:31:54;6.97;;;4.07;;
71236;SDS011;58984;51.960;5.582;2022-12-07T15:34:19;6.88;;;3.42;;
71236;SDS011;58984;51.960;5.582;2022-12-07T15:36:45;8.02;;;3.50;;
71236;SDS011;58984;51.960;5.582;2022-12-07T15:39:11;5.22;;;3.55;;
71236;SDS011;58984;51.960;5.582;2022-12-07T15:41:37;4.35;;;3.40;;
71236;SDS011;58984;51.960;5.582;2022-12-07T15:44:02;3.72;;;3.03;;
71236;SDS011;58984;51.960;5.582;2022-12-07T15:46:46;6.45;;;2.90;;
71236;SDS011;58984;51.960;5.582;2022-12-07T15:49:13;5.68;;;3.30;;
71236;SDS011;58984;51.960;5.582;2022-12-07T15:51:43;8.05;;;3.90;;
71236;SDS011;58984;51.960;5.582;2022-12-07T15:54:18;4.63;;;2.95;;
71236;SDS011;58984;51.960;5.582;2022-12-07T15:56:45;6.25;;;3.03;;
71236;SDS011;58984;51.960;5.582;2022-12-07T15:59:11;4.70;;;2.80;;
71236;SDS011;58984;51.960;5.582;2022-12-07T16:01:37;5.90;;;3.15;;
71236;SDS011;58984;51.960;5.582;2022-12-07T16:04:03;4.03;;;3.05;;
71236;SDS011;58984;51.960;5.582;2022-12-07T16:06:28;6.85;;;4.25;;
71236;SDS011;58984;51.960;5.582;2022-12-07T16:08:54;5.75;;;4.03;;
71236;SDS011;58984;51.960;5.582;2022-12-07T16:11:20;8.32;;;4.65;;
71236;SDS011;58984;51.960;5.582;2022-12-07T16:13:46;8.05;;;5.47;;
71236;SDS011;58984;51.960;5.582;2022-12-07T16:16:13;9.77;;;5.60;;
71236;SDS011;58984;51.960;5.582;2022-12-07T16:18:41;11.07;;;6.38;;
71236;SDS011;58984;51.960;5.582;2022-12-07T16:21:08;11.23;;;5.80;;
71236;SDS011;58984;51.960;5.582;2022-12-07T16:23:33;10.25;;;6.90;;
71236;SDS011;58984;51.960;5.582;2022-12-07T16:26:06;10.50;;;7.43;;
71236;SDS011;58984;51.960;5.582;2022-12-07T16:28:33;12.13;;;7.32;;
71236;SDS011;58984;51.960;5.582;2022-12-07T16:31:00;6.78;;;5.60;;
71236;SDS011;58984;51.960;5.582;2022-12-07T16:33:39;11.73;;;6.95;;
71236;SDS011;58984;51.960;5.582;2022-12-07T16:36:06;12.93;;;6.57;;
71236;SDS011;58984;51.960;5.582;2022-12-07T16:38:34;12.88;;;7.93;;
71236;SDS011;58984;51.960;5.582;2022-12-07T16:41:00;12.82;;;7.57;;
71236;SDS011;58984;51.960;5.582;2022-12-07T16:43:26;9.85;;;6.35;;
71236;SDS011;58984;51.960;5.582;2022-12-07T16:45:52;10.35;;;6.68;;
71236;SDS011;58984;51.960;5.582;2022-12-07T16:48:18;8.30;;;5.65;;
71236;SDS011;58984;51.960;5.582;2022-12-07T16:50:43;9.43;;;5.95;;
71236;SDS011;58984;51.960;5.582;2022-12-07T16:53:10;9.48;;;6.18;;
71236;SDS011;58984;51.960;5.582;2022-12-07T16:55:40;12.27;;;7.18;;
71236;SDS011;58984;51.960;5.582;2022-12-07T16:58:07;10.13;;;7.45;;
71236;SDS011;58984;51.960;5.582;2022-12-07T17:00:36;14.98;;;6.93;;
71236;SDS011;58984;51.960;5.582;2022-12-07T17:05:31;9.02;;;6.10;;
71236;SDS011;58984;51.960;5.582;2022-12-07T17:07:57;11.82;;;5.88;;
71236;SDS011;58984;51.960;5.582;2022-12-07T17:10:23;7.60;;;4.93;;
71236;SDS011;58984;51.960;5.582;2022-12-07T17:12:50;6.55;;;4.93;;
71236;SDS011;58984;51.960;5.582;2022-12-07T17:15:16;7.13;;;5.30;;
71236;SDS011;58984;51.960;5.582;2022-12-07T17:17:45;7.20;;;5.70;;
71236;SDS011;58984;51.960;5.582;2022-12-07T17:20:15;5.55;;;4.78;;
71236;SDS011;58984;51.960;5.582;2022-12-07T17:22:42;7.40;;;5.25;;
71236;SDS011;58984;51.960;5.582;2022-12-07T17:25:08;7.47;;;5.03;;
71236;SDS011;58984;51.960;5.582;2022-12-07T17:27:34;6.25;;;4.70;;
71236;SDS011;58984;51.960;5.582;2022-12-07T17:30:01;5.50;;;4.43;;
71236;SDS011;58984;51.960;5.582;2022-12-07T17:32:28;12.27;;;7.25;;
71236;SDS011;58984;51.960;5.582;2022-12-07T17:34:53;12.85;;;8.13;;
71236;SDS011;58984;51.960;5.582;2022-12-07T17:37:19;10.45;;;7.20;;